»·PEaware :: N856CM KLAX-KSAN

N856CM :: KLAX-KSAN

FLIGHT INFORMATION

Flight Status: Arrived
Operator: Privately registered:
United States
More flights under this callsign
Pilot: Jimmy M. (17685)
Aircraft: CESSNA 172 SKYHAWK
(C172)
More flights by this aircraft type
Origin: KLAX Los Angeles Intl
United States
Destination: KSAN San Diego Intl-Lindbergh
United States
More flights between these airports :: More routes between these airports
Route: +
File this flight plan on PilotEdge
Remarks: TEC route LAXN64 - CAT 11
Altitude:
(Current/Filed)
5,000ft
Speed:
(Current/Filed)
115kts
Departed: 01-Jan-18 09:12 PM
Arrived: 01-Jan-18 10:17 PM
Distance/Time
Traveled:
95nm/1:05
Distance/Time
To Go:
Arrived

Flight Plot

Page will automatically refresh every two minutes.


Map Options




Map Legend


Flown Route
Filed Route
Departure Airport
Arrival Airport
Navaid (VOR, NDB)
Fix

Horizontal Profiles

Position Reports

Time Latitude Longitude Heading Altitude Ground
Speed
01-Jan-18 20:18 33.933667 -118.399070 174 110ft 0kts
01-Jan-18 20:19 33.933667 -118.399070 174 110ft 0kts
01-Jan-18 20:20 33.933667 -118.399070 174 110ft 0kts
01-Jan-18 20:21 33.933667 -118.399070 174 110ft 0kts
01-Jan-18 20:22 33.933667 -118.399070 174 110ft 0kts
01-Jan-18 20:23 33.933667 -118.399070 174 110ft 0kts
01-Jan-18 20:24 33.933667 -118.399070 174 110ft 0kts
01-Jan-18 20:25 33.933667 -118.399070 174 110ft 0kts
01-Jan-18 20:26 33.933667 -118.399070 174 110ft 0kts
01-Jan-18 20:27 33.933667 -118.399070 174 110ft 0kts
01-Jan-18 20:28 33.933667 -118.399070 174 110ft 0kts
01-Jan-18 20:29 33.933667 -118.399070 174 110ft 0kts
01-Jan-18 20:30 33.933667 -118.399070 174 110ft 0kts
01-Jan-18 20:31 33.933667 -118.399070 174 110ft 0kts
01-Jan-18 20:32 33.933667 -118.399070 174 110ft 0kts
01-Jan-18 20:33 33.933667 -118.399070 174 110ft 0kts
01-Jan-18 20:34 33.933667 -118.399070 174 110ft 0kts
01-Jan-18 20:35 33.933667 -118.399070 174 110ft 0kts
01-Jan-18 20:36 33.933667 -118.399070 174 110ft 0kts
01-Jan-18 20:37 33.933667 -118.399070 174 110ft 0kts
01-Jan-18 20:38 33.933667 -118.399070 174 110ft 0kts
01-Jan-18 20:39 33.933667 -118.399070 174 110ft 0kts
01-Jan-18 20:40 33.933667 -118.399070 174 110ft 0kts
01-Jan-18 20:41 33.933667 -118.399070 174 110ft 0kts
01-Jan-18 20:42 33.933667 -118.399070 174 110ft 0kts
01-Jan-18 20:43 33.933667 -118.399070 174 110ft 0kts
01-Jan-18 20:44 33.933667 -118.399070 174 110ft 0kts
01-Jan-18 20:45 33.933667 -118.399070 174 110ft 0kts
01-Jan-18 20:46 33.933667 -118.399070 174 110ft 0kts
01-Jan-18 20:47 33.933667 -118.399070 174 110ft 0kts
01-Jan-18 20:48 33.933667 -118.399070 174 110ft 0kts
01-Jan-18 20:49 33.933667 -118.399070 174 110ft 0kts
01-Jan-18 20:50 33.933667 -118.399070 174 110ft 0kts
01-Jan-18 20:51 33.933667 -118.399070 174 110ft 0kts
01-Jan-18 20:52 33.933667 -118.399070 174 110ft 0kts
01-Jan-18 20:53 33.933667 -118.399070 174 110ft 0kts
01-Jan-18 20:54 33.933667 -118.399070 174 110ft 0kts
01-Jan-18 20:55 33.933667 -118.399070 174 110ft 0kts
01-Jan-18 20:56 33.933667 -118.399070 174 110ft 0kts
01-Jan-18 20:57 33.933667 -118.399070 174 110ft 0kts
01-Jan-18 20:58 33.933667 -118.399070 174 110ft 0kts
01-Jan-18 20:59 33.933667 -118.399070 174 110ft 0kts
01-Jan-18 21:00 33.933667 -118.399070 174 110ft 0kts
01-Jan-18 21:01 33.933667 -118.399070 174 110ft 0kts
01-Jan-18 21:02 33.933667 -118.399070 174 110ft 0kts
01-Jan-18 21:03 33.933667 -118.399070 174 110ft 0kts
01-Jan-18 21:04 33.933667 -118.399070 174 110ft 0kts
01-Jan-18 21:05 33.933667 -118.399070 174 110ft 0kts
01-Jan-18 21:06 33.933667 -118.399070 174 110ft 0kts
01-Jan-18 21:07 33.933667 -118.399070 174 110ft 0kts
01-Jan-18 21:08 33.933667 -118.399070 174 110ft 0kts
01-Jan-18 21:09 33.933667 -118.399070 174 110ft 0kts
01-Jan-18 21:10 33.933667 -118.399070 174 110ft 0kts
01-Jan-18 21:11 33.933669 -118.398665 42 109ft 0kts
01-Jan-18 21:12 33.934814 -118.395660 84 106ft 23kts
01-Jan-18 21:13 33.935644 -118.387459 81 99ft 23kts
01-Jan-18 21:14 33.936175 -118.382963 43 96ft 0kts
01-Jan-18 21:15 33.936175 -118.382963 43 96ft 0kts
01-Jan-18 21:16 33.936175 -118.382963 43 96ft 0kts
01-Jan-18 21:17 33.937175 -118.383037 305 96ft 14kts
01-Jan-18 21:18 33.935564 -118.403150 265 734ft 79kts
01-Jan-18 21:19 33.933872 -118.429960 265 1770ft 81kts
01-Jan-18 21:20 33.932092 -118.458752 265 2500ft 107kts
01-Jan-18 21:21 33.928299 -118.488979 223 3501ft 89kts
01-Jan-18 21:22 33.903959 -118.488371 170 4379ft 91kts
01-Jan-18 21:23 33.877462 -118.483523 170 5000ft 115kts
01-Jan-18 21:24 33.844568 -118.477552 171 4999ft 119kts
01-Jan-18 21:25 33.811690 -118.471368 171 4999ft 120kts
01-Jan-18 21:26 33.778583 -118.464818 171 4999ft 121kts
01-Jan-18 21:27 33.746454 -118.455525 152 4999ft 116kts
01-Jan-18 21:28 33.724949 -118.438148 111 5000ft 111kts
01-Jan-18 21:29 33.726590 -118.402469 76 5000ft 108kts
01-Jan-18 21:30 33.733387 -118.360715 76 5000ft 111kts
01-Jan-18 21:31 33.739495 -118.323440 76 4999ft 115kts
01-Jan-18 21:32 33.739253 -118.291139 91 4999ft 116kts
01-Jan-18 21:33 33.736805 -118.252472 94 4999ft 116kts
01-Jan-18 21:34 33.724927 -118.211465 135 4999ft 117kts
01-Jan-18 21:35 33.704954 -118.189459 136 4999ft 117kts
01-Jan-18 21:36 33.680704 -118.163447 136 5000ft 118kts
01-Jan-18 21:37 33.656085 -118.137297 136 4999ft 118kts
01-Jan-18 21:38 33.631291 -118.111036 136 5000ft 120kts
01-Jan-18 21:39 33.606212 -118.084528 136 4999ft 119kts
01-Jan-18 21:40 33.581670 -118.058622 136 5000ft 117kts
01-Jan-18 21:41 33.556536 -118.032060 137 4999ft 121kts
01-Jan-18 21:42 33.531110 -118.005249 137 4999ft 121kts
01-Jan-18 21:43 33.505868 -117.978651 137 4999ft 120kts
01-Jan-18 21:44 33.480706 -117.952150 137 4999ft 121kts
01-Jan-18 21:45 33.455465 -117.925601 137 4999ft 120kts
01-Jan-18 21:46 33.430662 -117.899551 137 5000ft 118kts
01-Jan-18 21:47 33.406129 -117.873787 137 5002ft 118kts
01-Jan-18 21:48 33.381376 -117.847811 137 5003ft 118kts
01-Jan-18 21:49 33.356583 -117.821814 137 5004ft 118kts
01-Jan-18 21:50 33.331888 -117.795939 137 5006ft 118kts
01-Jan-18 21:51 33.307349 -117.770325 138 4670ft 116kts
01-Jan-18 21:52 33.283213 -117.745139 137 4012ft 116kts
01-Jan-18 21:53 33.258613 -117.719315 138 4009ft 118kts
01-Jan-18 21:54 33.233948 -117.693530 138 4009ft 118kts
01-Jan-18 21:55 33.209199 -117.667688 138 4009ft 118kts
01-Jan-18 21:56 33.184401 -117.641823 138 4009ft 118kts
01-Jan-18 21:57 33.159813 -117.616225 138 4008ft 114kts
01-Jan-18 21:58 33.136151 -117.591454 131 4008ft 112kts
01-Jan-18 21:59 33.122742 -117.558033 113 4009ft 112kts
01-Jan-18 22:00 33.109728 -117.524346 113 4012ft 111kts
01-Jan-18 22:01 33.096633 -117.491017 113 3877ft 110kts
01-Jan-18 22:02 33.084268 -117.457575 102 3508ft 108kts
01-Jan-18 22:03 33.077655 -117.422636 101 3505ft 109kts
01-Jan-18 22:04 33.071335 -117.388062 100 3502ft 105kts
01-Jan-18 22:05 33.065322 -117.354231 100 3500ft 104kts
01-Jan-18 22:06 33.047524 -117.332069 160 3500ft 105kts
01-Jan-18 22:07 33.019839 -117.320839 160 3501ft 105kts
01-Jan-18 22:08 32.992224 -117.309676 160 3502ft 103kts
01-Jan-18 22:09 32.965693 -117.298961 160 3504ft 99kts
01-Jan-18 22:10 32.939754 -117.288491 160 3505ft 98kts
01-Jan-18 22:11 32.913905 -117.278071 160 3507ft 98kts
01-Jan-18 22:12 32.888347 -117.267790 160 3507ft 98kts
01-Jan-18 22:13 32.862540 -117.257432 160 3508ft 98kts
01-Jan-18 22:14 32.836418 -117.246962 161 3499ft 97kts
01-Jan-18 22:15 32.808518 -117.235907 161 2662ft 107kts
01-Jan-18 22:16 32.780836 -117.224320 156 1719ft 105kts
01-Jan-18 22:17 32.764583 -117.200219 101 1011ft 94kts
01-Jan-18 22:18 32.759494 -117.170524 101 1009ft 94kts
01-Jan-18 22:19 32.754130 -117.139441 101 1008ft 96kts
01-Jan-18 22:20 32.734110 -117.128054 191 1009ft 97kts
01-Jan-18 22:21 32.724000 -117.150260 286 676ft 96kts
01-Jan-18 22:22 32.731323 -117.180597 287 84ft 92kts
01-Jan-18 22:23 32.736232 -117.200707 285 14ft 23kts
01-Jan-18 22:24 32.735774 -117.202087 207 14ft 0kts
01-Jan-18 22:25 32.735729 -117.202110 199 14ft 5kts
01-Jan-18 22:26 32.734261 -117.196820 106 14ft 19kts
01-Jan-18 22:27 32.733228 -117.191711 40 17ft 0kts
01-Jan-18 22:28 32.733228 -117.191711 40 17ft 0kts
01-Jan-18 22:29 32.733228 -117.191711 40 17ft 0kts
01-Jan-18 22:30 32.735150 -117.188988 65 17ft 19kts
01-Jan-18 22:31 32.735145 -117.188148 199 17ft 0kts
01-Jan-18 22:32 32.735145 -117.188148 200 17ft 0kts

Navigation Log

Ident Type
Flight plan parsing failed, navigation log unavailable